Terminal Aerodrome Forecast
Issued by NWS Lake Charles, LA

Home | Current Version | Previous Version | Text Only | Print | Product List | Glossary On
Versions: 1 2 3 4 5 6 7 8 9 10 11 12 13 14 15 16 17 18 19 20
000
FTUS44 KLCH 271148
TAFLCH
TAF
KLCH 271148Z 2712/2812 VRB25G35KT 1/2SM +TSRA OVC018CB
     FM271300 29005KT P6SM TSRA OVC018CB
     FM271700 15008KT P6SM OVC025
     FM280500 12004KT P6SM OVC015=

USA.gov is the U.S. government's official web portal to all federal, state and local government web resources and services.